createdAt,value
2022-11-22T00:00:47.183Z,10.32
2022-11-22T00:03:14.801Z,10.38
2022-11-22T00:05:42.579Z,16.33
2022-11-22T00:08:10.470Z,13.25
2022-11-22T00:10:38.071Z,12.02
2022-11-22T00:13:05.963Z,16.65
2022-11-22T00:15:33.631Z,12.20
2022-11-22T00:18:01.578Z,13.38
2022-11-22T00:20:29.782Z,15.77
2022-11-22T00:22:58.426Z,16.08
2022-11-22T00:25:26.817Z,12.18
2022-11-22T00:27:54.737Z,16.13
2022-11-22T00:30:22.500Z,16.48
2022-11-22T00:32:50.156Z,11.05
2022-11-22T00:35:17.757Z,14.02
2022-11-22T00:37:45.629Z,13.20
2022-11-22T00:40:13.556Z,10.95
2022-11-22T00:42:41.074Z,12.48
2022-11-22T00:45:09.150Z,15.48
2022-11-22T00:47:36.903Z,14.98
2022-11-22T00:50:05.825Z,17.88
2022-11-22T00:52:33.390Z,23.48
2022-11-22T00:55:01.146Z,20.80
2022-11-22T00:57:29.975Z,21.60
2022-11-22T00:59:57.582Z,18.65
2022-11-22T01:02:25.219Z,16.92
2022-11-22T01:04:52.712Z,21.98
2022-11-22T01:07:20.375Z,16.73
2022-11-22T01:09:48.050Z,18.15
2022-11-22T01:12:15.749Z,15.60
2022-11-22T01:14:43.680Z,15.13
2022-11-22T01:17:11.296Z,9.35
2022-11-22T01:19:38.871Z,16.48
2022-11-22T01:22:06.451Z,12.15
2022-11-22T01:24:34.017Z,17.20
2022-11-22T01:27:01.660Z,12.55
2022-11-22T01:29:29.355Z,12.57
2022-11-22T01:31:57.183Z,14.20
2022-11-22T01:34:24.921Z,12.82
2022-11-22T01:36:52.662Z,16.42
2022-11-22T01:39:20.479Z,13.95
2022-11-22T01:41:48.048Z,15.63
2022-11-22T01:44:27.170Z,12.50
2022-11-22T01:47:13.271Z,12.07
2022-11-22T01:49:55.385Z,15.23
2022-11-22T01:52:27.730Z,16.15
2022-11-22T01:55:07.133Z,10.93
2022-11-22T01:57:37.690Z,12.10
2022-11-22T02:00:09.490Z,15.75
2022-11-22T02:02:49.872Z,12.02
2022-11-22T02:05:21.463Z,12.63
2022-11-22T02:08:21.675Z,10.85
2022-11-22T02:10:53.118Z,13.35
2022-11-22T02:13:22.872Z,11.60
2022-11-22T02:15:52.493Z,10.68
2022-11-22T02:18:20.337Z,11.80
2022-11-22T02:20:48.585Z,11.45
2022-11-22T02:23:50.081Z,11.07
2022-11-22T02:26:20.897Z,12.75
2022-11-22T02:28:49.940Z,9.75
2022-11-22T02:31:43.390Z,10.30
2022-11-22T02:34:12.093Z,12.13
2022-11-22T02:36:47.439Z,18.38
2022-11-22T02:39:20.237Z,18.33
2022-11-22T02:41:48.816Z,13.73
2022-11-22T02:44:25.678Z,14.80
2022-11-22T02:46:55.208Z,17.88
2022-11-22T02:49:24.982Z,16.05
2022-11-22T02:51:53.323Z,14.73
2022-11-22T02:54:21.179Z,14.63
2022-11-22T02:56:48.855Z,19.17
2022-11-22T02:59:16.538Z,19.60
2022-11-22T03:01:46.590Z,21.73
2022-11-22T03:04:24.854Z,17.08
2022-11-22T03:06:57.695Z,23.58
2022-11-22T03:09:26.811Z,21.65
2022-11-22T03:11:55.149Z,22.15
2022-11-22T03:14:22.705Z,23.27
2022-11-22T03:16:50.177Z,18.67
2022-11-22T03:19:17.788Z,20.30
2022-11-22T03:21:45.596Z,26.67
2022-11-22T03:24:13.366Z,27.52
2022-11-22T03:26:41.159Z,32.85
2022-11-22T03:29:08.703Z,34.38
2022-11-22T03:31:36.339Z,30.50
2022-11-22T03:34:03.992Z,27.65
2022-11-22T03:36:31.472Z,29.58
2022-11-22T03:38:59.347Z,31.63
2022-11-22T03:41:27.000Z,32.72
2022-11-22T03:43:54.556Z,31.98
2022-11-22T03:46:22.128Z,36.35
2022-11-22T03:48:49.665Z,31.08
2022-11-22T03:51:17.333Z,39.30
2022-11-22T03:53:44.891Z,39.78
2022-11-22T03:56:12.513Z,30.10
2022-11-22T03:58:40.039Z,39.78
2022-11-22T04:01:10.744Z,37.92
2022-11-22T04:03:41.022Z,32.08
2022-11-22T04:06:08.494Z,38.67
2022-11-22T04:08:36.073Z,39.38
2022-11-22T04:11:03.666Z,32.20
2022-11-22T04:13:50.032Z,37.70
2022-11-22T04:16:17.590Z,32.55
2022-11-22T04:18:45.055Z,35.00
2022-11-22T04:21:31.112Z,31.48
2022-11-22T04:24:17.085Z,25.02
2022-11-22T04:26:44.636Z,28.45
2022-11-22T04:29:12.133Z,27.40
2022-11-22T04:31:58.162Z,30.08
2022-11-22T04:34:25.738Z,30.92
2022-11-22T04:36:53.393Z,35.92
2022-11-22T04:39:21.768Z,30.80
2022-11-22T04:42:11.643Z,33.58
2022-11-22T04:44:42.023Z,30.02
2022-11-22T04:47:37.684Z,33.85
2022-11-22T04:50:26.279Z,34.05
2022-11-22T04:52:56.094Z,39.55
2022-11-22T04:55:23.901Z,43.83
2022-11-22T04:57:57.557Z,35.17
2022-11-22T05:00:28.450Z,38.83
2022-11-22T05:02:56.671Z,44.50
2022-11-22T05:05:25.156Z,46.45
2022-11-22T05:07:52.889Z,48.75
2022-11-22T05:10:26.086Z,47.53
2022-11-22T05:12:54.243Z,42.53
2022-11-22T05:15:21.758Z,41.83
2022-11-22T05:17:49.284Z,51.35
2022-11-22T05:20:16.789Z,42.08
2022-11-22T05:23:02.673Z,44.95
2022-11-22T05:25:30.179Z,40.83
2022-11-22T05:27:57.642Z,45.33
2022-11-22T05:30:25.217Z,46.33
2022-11-22T05:32:54.587Z,50.17
2022-11-22T05:35:22.081Z,46.67
2022-11-22T05:37:49.565Z,49.20
2022-11-22T05:40:17.152Z,58.22
2022-11-22T05:42:44.698Z,56.42
2022-11-22T05:45:12.218Z,56.22
2022-11-22T05:47:39.794Z,50.85
2022-11-22T05:50:08.365Z,55.42
2022-11-22T05:52:36.022Z,49.92
2022-11-22T05:55:04.190Z,66.95
2022-11-22T05:57:32.976Z,49.05
2022-11-22T06:00:00.591Z,52.17
2022-11-22T06:02:28.220Z,49.47
2022-11-22T06:04:56.131Z,52.63
2022-11-22T06:07:23.683Z,48.97
2022-11-22T06:09:51.332Z,52.42
2022-11-22T06:12:18.861Z,41.78
2022-11-22T06:14:46.614Z,39.53
2022-11-22T06:17:14.290Z,47.65
2022-11-22T06:19:41.962Z,49.35
2022-11-22T06:22:10.244Z,51.63
2022-11-22T06:24:38.477Z,50.92
2022-11-22T06:27:06.097Z,49.25
2022-11-22T06:29:33.864Z,49.03
2022-11-22T06:32:03.708Z,55.72
2022-11-22T06:34:31.819Z,50.42
2022-11-22T06:36:59.456Z,58.05
2022-11-22T06:39:27.576Z,46.80
2022-11-22T06:41:55.432Z,58.80
2022-11-22T06:44:23.078Z,40.53
2022-11-22T06:46:50.706Z,42.53
2022-11-22T06:49:18.322Z,44.70
2022-11-22T06:51:45.828Z,47.10
2022-11-22T06:54:13.484Z,37.08
2022-11-22T06:56:41.819Z,37.63
2022-11-22T06:59:09.852Z,45.70
2022-11-22T07:01:38.698Z,42.45
2022-11-22T07:04:07.143Z,42.30
2022-11-22T07:06:37.177Z,41.75
2022-11-22T07:09:08.375Z,47.60
2022-11-22T07:11:37.237Z,49.22
2022-11-22T07:14:08.740Z,48.53
2022-11-22T07:16:38.772Z,50.97
2022-11-22T07:19:07.262Z,55.30
2022-11-22T07:21:37.139Z,47.92
2022-11-22T07:26:33.266Z,47.75
2022-11-22T07:29:02.053Z,58.97
2022-11-22T07:31:29.690Z,55.08
2022-11-22T07:33:58.258Z,54.28
2022-11-22T07:36:29.397Z,51.50
2022-11-22T07:38:57.239Z,57.50
2022-11-22T07:41:24.973Z,60.28
2022-11-22T07:43:53.166Z,61.03
2022-11-22T07:46:29.741Z,64.40
2022-11-22T07:49:01.810Z,61.58
2022-11-22T07:51:30.291Z,58.83
2022-11-22T07:53:58.440Z,61.10
2022-11-22T07:56:26.688Z,67.90
2022-11-22T07:58:55.251Z,62.53
2022-11-22T08:01:23.871Z,70.05
2022-11-22T08:03:51.532Z,63.15
2022-11-22T08:06:19.073Z,66.22
2022-11-22T08:08:46.648Z,67.63
2022-11-22T08:11:14.396Z,67.30
2022-11-22T08:13:42.646Z,48.08
2022-11-22T08:16:16.547Z,58.65
2022-11-22T08:18:49.019Z,55.25
2022-11-22T08:21:18.709Z,53.05
2022-11-22T08:23:47.594Z,59.50
2022-11-22T08:26:17.517Z,62.92
2022-11-22T08:28:45.476Z,66.45
2022-11-22T08:31:16.320Z,61.08
2022-11-22T08:33:44.034Z,62.47
2022-11-22T08:36:16.609Z,59.15
2022-11-22T08:41:11.646Z,58.15
2022-11-22T08:43:39.254Z,64.88
2022-11-22T08:46:07.270Z,58.70
2022-11-22T08:48:36.446Z,52.85
2022-11-22T08:51:09.863Z,62.90
2022-11-22T08:53:39.748Z,58.70
2022-11-22T08:56:09.846Z,56.28
2022-11-22T08:58:38.267Z,49.47
2022-11-22T09:01:07.382Z,52.65
2022-11-22T09:03:36.245Z,65.03
2022-11-22T09:09:15.167Z,41.08
2022-11-22T09:11:44.748Z,45.65
2022-11-22T09:14:12.297Z,49.20
2022-11-22T09:16:39.913Z,48.15
2022-11-22T09:19:08.052Z,47.92
2022-11-22T09:21:35.640Z,43.17
2022-11-22T09:24:03.221Z,36.90
2022-11-22T09:26:30.941Z,35.13
2022-11-22T09:28:58.496Z,27.67
2022-11-22T09:31:26.055Z,37.67
2022-11-22T09:33:53.631Z,37.38
2022-11-22T09:36:23.672Z,34.95
2022-11-22T09:41:25.994Z,33.63
2022-11-22T09:44:16.877Z,38.70
2022-11-22T09:47:25.931Z,35.65
2022-11-22T09:50:21.474Z,29.35
2022-11-22T09:52:48.974Z,29.40
2022-11-22T09:55:36.832Z,29.90
2022-11-22T09:58:23.377Z,30.90
2022-11-22T10:00:52.571Z,26.52
2022-11-22T10:03:33.344Z,27.52
2022-11-22T10:06:06.859Z,35.83
2022-11-22T10:08:50.171Z,45.88
2022-11-22T10:11:40.393Z,52.15
2022-11-22T10:14:23.444Z,24.73
2022-11-22T10:16:57.391Z,27.15
2022-11-22T10:19:35.293Z,23.20
2022-11-22T10:22:03.110Z,23.02
2022-11-22T10:24:31.138Z,23.13
2022-11-22T10:27:00.656Z,27.60
2022-11-22T10:29:37.113Z,23.20
2022-11-22T10:32:29.173Z,23.58
2022-11-22T10:35:14.529Z,18.17
2022-11-22T10:38:08.019Z,21.48
2022-11-22T10:40:54.574Z,22.23
2022-11-22T10:43:33.478Z,16.33
2022-11-22T10:46:18.044Z,15.82
2022-11-22T10:49:00.726Z,20.83
2022-11-22T10:51:58.774Z,22.58
2022-11-22T10:54:53.959Z,19.48
2022-11-22T10:57:43.070Z,22.02
2022-11-22T11:00:25.133Z,20.97
2022-11-22T11:03:09.598Z,14.48
2022-11-22T11:06:24.560Z,13.23
2022-11-22T11:10:02.841Z,16.15
2022-11-22T11:12:01.315Z,14.90
2022-11-22T11:14:35.546Z,8.95
2022-11-22T11:17:05.215Z,11.90
2022-11-22T11:19:38.785Z,8.90
2022-11-22T11:22:23.371Z,13.70
2022-11-22T11:25:31.114Z,12.13
2022-11-22T11:28:06.560Z,13.50
2022-11-22T11:30:55.286Z,8.95
2022-11-22T11:33:34.997Z,10.02
2022-11-22T11:36:19.216Z,11.35
2022-11-22T11:38:47.049Z,9.40
2022-11-22T11:41:22.024Z,6.63
2022-11-22T11:43:50.688Z,5.78
2022-11-22T11:46:49.214Z,11.88
2022-11-22T11:49:20.750Z,16.00
2022-11-22T11:51:54.351Z,23.90
2022-11-22T11:54:24.134Z,21.60
2022-11-22T11:57:00.319Z,7.95
2022-11-22T11:59:42.521Z,11.68
2022-11-22T12:02:38.880Z,7.70
2022-11-22T12:05:12.699Z,12.82
2022-11-22T12:07:46.468Z,10.15
2022-11-22T12:10:45.508Z,7.10
2022-11-22T12:13:16.645Z,5.72
2022-11-22T12:15:48.987Z,6.30
2022-11-22T12:18:46.627Z,7.10
2022-11-22T12:21:52.651Z,8.60
2022-11-22T12:27:12.566Z,9.93
2022-11-22T12:29:44.499Z,8.45
2022-11-22T12:32:30.729Z,4.88
2022-11-22T12:35:26.320Z,7.25
2022-11-22T12:38:02.029Z,8.02
2022-11-22T12:40:38.827Z,7.50
2022-11-22T12:43:17.989Z,10.90
2022-11-22T12:46:16.776Z,5.23
2022-11-22T12:48:58.499Z,9.68
2022-11-22T12:51:26.381Z,11.00
2022-11-22T12:54:00.832Z,8.27
2022-11-22T12:56:33.572Z,7.85
2022-11-22T12:59:08.571Z,5.88
2022-11-22T13:01:42.200Z,8.63
2022-11-22T13:04:09.830Z,6.97
2022-11-22T13:07:05.147Z,6.63
2022-11-22T13:09:36.341Z,17.33
2022-11-22T13:12:21.875Z,5.38
2022-11-22T13:14:55.319Z,8.18
2022-11-22T13:17:25.797Z,9.02
2022-11-22T13:20:03.194Z,10.13
2022-11-22T13:22:43.149Z,10.57
2022-11-22T13:25:32.450Z,7.82
2022-11-22T13:28:02.529Z,6.53
2022-11-22T13:33:00.249Z,7.20
2022-11-22T13:35:35.648Z,10.25
2022-11-22T13:38:13.708Z,8.07
2022-11-22T13:40:43.606Z,9.32
2022-11-22T13:46:05.044Z,19.33
2022-11-22T13:48:41.610Z,12.35
2022-11-22T13:51:09.162Z,5.53
2022-11-22T13:53:40.400Z,11.98
2022-11-22T13:56:17.150Z,8.52
2022-11-22T13:58:52.669Z,9.93
2022-11-22T14:01:35.390Z,8.88
2022-11-22T14:04:25.014Z,7.72
2022-11-22T14:07:10.933Z,6.15
2022-11-22T14:09:45.287Z,8.68
2022-11-22T14:12:43.759Z,9.38
2022-11-22T14:15:44.938Z,9.15
2022-11-22T14:18:44.600Z,9.23
2022-11-22T14:21:27.970Z,9.70
2022-11-22T14:24:23.098Z,6.70
2022-11-22T14:27:12.121Z,9.98
2022-11-22T14:30:07.606Z,6.20
2022-11-22T14:32:59.603Z,10.75
2022-11-22T14:35:30.135Z,7.18
2022-11-22T14:38:00.769Z,8.20
2022-11-22T14:40:41.034Z,15.32
2022-11-22T14:43:11.319Z,12.70
2022-11-22T14:45:50.453Z,11.20
2022-11-22T14:48:28.891Z,9.32
2022-11-22T14:51:09.270Z,8.55
2022-11-22T14:53:48.921Z,7.60
2022-11-22T14:56:35.578Z,12.20
2022-11-22T14:59:37.327Z,10.73
2022-11-22T15:02:34.858Z,6.82
2022-11-22T15:09:10.584Z,7.93
2022-11-22T15:09:19.646Z,6.75
2022-11-22T15:11:45.159Z,5.65
2022-11-22T15:14:40.457Z,14.07
2022-11-22T15:57:38.154Z,10.00
2022-11-22T16:00:24.658Z,8.73
2022-11-22T16:03:30.201Z,11.38
2022-11-22T16:06:11.038Z,10.70
2022-11-22T16:08:47.302Z,14.43
2022-11-22T16:11:38.627Z,19.77
2022-11-22T16:14:41.437Z,15.57
2022-11-22T16:17:37.613Z,15.23
2022-11-22T16:20:27.266Z,20.08
2022-11-22T16:23:10.728Z,12.80
2022-11-22T16:25:43.474Z,22.05
2022-11-22T16:28:30.414Z,16.65
2022-11-22T16:31:01.230Z,12.25
2022-11-22T16:33:29.359Z,13.80
2022-11-22T16:35:59.529Z,26.10
2022-11-22T16:38:27.724Z,14.68
2022-11-22T16:40:58.935Z,13.43
2022-11-22T16:43:32.949Z,13.20
2022-11-22T16:46:02.134Z,17.27
2022-11-22T16:48:38.277Z,17.67
2022-11-22T16:51:11.894Z,12.77
2022-11-22T16:53:47.995Z,10.65
2022-11-22T16:56:24.079Z,12.93
2022-11-22T16:58:54.672Z,11.20
2022-11-22T17:01:25.469Z,10.75
2022-11-22T17:03:57.442Z,10.65
2022-11-22T17:06:29.977Z,11.48
2022-11-22T17:08:59.949Z,16.65
2022-11-22T17:11:30.634Z,38.20
2022-11-22T17:13:59.557Z,37.65
2022-11-22T17:16:27.227Z,30.48
2022-11-22T17:18:54.784Z,27.83
2022-11-22T17:21:26.585Z,22.83
2022-11-22T17:24:00.132Z,22.77
2022-11-22T17:26:28.248Z,14.75
2022-11-22T17:28:56.369Z,15.32
2022-11-22T17:31:25.100Z,19.63
2022-11-22T17:33:54.135Z,20.17
2022-11-22T17:36:37.047Z,19.67
2022-11-22T17:39:06.852Z,18.77
2022-11-22T17:41:35.405Z,15.88
2022-11-22T17:44:04.177Z,11.10
2022-11-22T17:46:34.442Z,13.27
2022-11-22T17:49:02.519Z,17.50
2022-11-22T17:51:31.063Z,14.43
2022-11-22T17:53:59.323Z,14.60
2022-11-22T17:56:27.456Z,16.00
2022-11-22T17:58:55.366Z,17.33
2022-11-22T18:01:24.418Z,15.30
2022-11-22T18:03:52.246Z,15.00
2022-11-22T18:06:23.526Z,15.57
2022-11-22T18:08:51.334Z,18.25
2022-11-22T18:11:19.240Z,15.13
2022-11-22T18:13:47.402Z,17.95
2022-11-22T18:16:17.393Z,13.48
2022-11-22T18:21:30.164Z,10.88
2022-11-22T18:24:01.832Z,15.23
2022-11-22T18:26:44.898Z,10.30
2022-11-22T18:32:02.760Z,16.70
2022-11-22T18:34:30.635Z,16.60
2022-11-22T18:37:02.393Z,8.93
2022-11-22T18:39:37.147Z,10.85
2022-11-22T18:42:09.932Z,10.18
2022-11-22T18:44:37.870Z,8.10
2022-11-22T18:47:08.161Z,8.00
2022-11-22T18:49:36.250Z,6.03
2022-11-22T18:52:04.270Z,8.30
2022-11-22T18:54:34.262Z,8.45
2022-11-22T18:59:29.708Z,7.07
2022-11-22T19:01:57.242Z,4.85
2022-11-22T19:04:24.865Z,5.05
2022-11-22T19:06:52.688Z,6.07
2022-11-22T19:09:20.262Z,6.30
2022-11-22T19:11:47.804Z,4.63
2022-11-22T19:14:15.878Z,8.73
2022-11-22T19:16:43.372Z,4.05
2022-11-22T19:19:12.226Z,7.15
2022-11-22T19:21:42.969Z,4.03
2022-11-22T19:24:10.948Z,3.70
2022-11-22T19:26:38.692Z,4.70
2022-11-22T19:29:06.329Z,3.17
2022-11-22T19:31:34.069Z,4.18
2022-11-22T19:34:01.854Z,5.28
2022-11-22T19:36:34.147Z,6.43
2022-11-22T19:39:04.126Z,5.43
2022-11-22T19:41:32.620Z,3.53
2022-11-22T19:44:00.990Z,5.18
2022-11-22T19:46:29.560Z,4.55
2022-11-22T19:48:59.436Z,4.68
2022-11-22T19:54:00.291Z,7.22
2022-11-22T19:56:30.627Z,8.15
2022-11-22T19:58:59.705Z,28.65
2022-11-22T20:01:29.763Z,26.65
2022-11-22T20:04:03.735Z,20.35
2022-11-22T20:06:33.289Z,21.48
2022-11-22T20:09:01.930Z,17.33
2022-11-22T20:11:29.691Z,16.60
2022-11-22T20:13:57.600Z,13.05
2022-11-22T20:16:27.946Z,8.40
2022-11-22T20:18:57.357Z,10.27
2022-11-22T20:21:26.852Z,17.23
2022-11-22T20:23:55.167Z,24.60
2022-11-22T20:26:23.577Z,20.92
2022-11-22T20:29:03.018Z,20.25
2022-11-22T20:31:32.419Z,19.17
2022-11-22T20:34:01.022Z,17.95
2022-11-22T20:36:31.196Z,18.63
2022-11-22T20:39:01.014Z,22.52
2022-11-22T20:41:30.601Z,19.40
2022-11-22T20:43:58.165Z,20.88
2022-11-22T20:46:27.962Z,21.52
2022-11-22T20:48:56.815Z,23.98
2022-11-22T20:51:26.502Z,24.85
2022-11-22T20:53:55.049Z,27.98
2022-11-22T20:56:22.736Z,33.58
2022-11-22T20:58:50.690Z,26.08
2022-11-22T21:01:24.079Z,27.73
2022-11-22T21:03:53.077Z,14.52
2022-11-22T21:06:23.698Z,26.42
2022-11-22T21:08:51.518Z,18.15
2022-11-22T21:11:27.764Z,18.55
2022-11-22T21:13:57.117Z,13.93
2022-11-22T21:16:27.201Z,20.05
2022-11-22T21:19:02.528Z,14.23
2022-11-22T21:21:31.719Z,20.60
2022-11-22T21:24:01.480Z,15.27
2022-11-22T21:26:29.718Z,13.05
2022-11-22T21:28:59.346Z,16.67
2022-11-22T21:31:28.098Z,16.20
2022-11-22T21:33:55.794Z,15.85
2022-11-22T21:36:23.408Z,14.65
2022-11-22T21:38:51.423Z,16.25
2022-11-22T21:41:39.371Z,19.88
2022-11-22T21:44:08.999Z,16.35
2022-11-22T21:46:39.977Z,23.95
2022-11-22T21:49:07.837Z,21.38
2022-11-22T21:51:35.445Z,18.63
2022-11-22T21:54:04.158Z,18.10
2022-11-22T21:56:32.145Z,18.10
2022-11-22T21:59:00.531Z,18.25
2022-11-22T22:01:28.935Z,19.17
2022-11-22T22:03:56.901Z,18.58
2022-11-22T22:06:25.498Z,21.98
2022-11-22T22:08:54.409Z,18.92
2022-11-22T22:11:23.912Z,16.10
2022-11-22T22:13:58.328Z,16.13
2022-11-22T22:16:26.553Z,15.07
2022-11-22T22:18:54.889Z,19.55
2022-11-22T22:21:22.516Z,10.50
2022-11-22T22:23:50.120Z,13.23
2022-11-22T22:26:18.299Z,13.95
2022-11-22T22:28:46.522Z,18.23
2022-11-22T22:31:23.026Z,16.60
2022-11-22T22:33:53.974Z,13.43
2022-11-22T22:36:22.036Z,13.30
2022-11-22T22:38:50.329Z,16.08
2022-11-22T22:41:18.936Z,13.80
2022-11-22T22:43:48.322Z,16.27
2022-11-22T22:46:21.683Z,13.77
2022-11-22T22:48:49.857Z,16.42
2022-11-22T22:51:20.433Z,15.95
2022-11-22T22:53:48.858Z,22.50
2022-11-22T22:56:19.196Z,17.17
2022-11-22T22:58:46.858Z,27.50
2022-11-22T23:01:17.640Z,20.63
2022-11-22T23:03:49.763Z,21.02
2022-11-22T23:06:17.951Z,19.95
2022-11-22T23:08:47.733Z,22.35
2022-11-22T23:11:17.928Z,21.35
2022-11-22T23:13:45.696Z,21.80
2022-11-22T23:16:14.865Z,18.83
2022-11-22T23:18:44.763Z,23.55
2022-11-22T23:21:14.961Z,18.98
2022-11-22T23:23:42.892Z,21.55
2022-11-22T23:26:12.352Z,18.40
2022-11-22T23:28:40.350Z,22.15
2022-11-22T23:31:13.593Z,20.63
2022-11-22T23:33:42.714Z,21.52
2022-11-22T23:36:13.045Z,20.70
2022-11-22T23:38:41.184Z,22.27
2022-11-22T23:41:16.653Z,24.33
2022-11-22T23:43:44.255Z,26.65
2022-11-22T23:46:16.286Z,20.00
2022-11-22T23:48:45.673Z,25.17
2022-11-22T23:51:14.974Z,18.30
2022-11-22T23:53:42.876Z,29.10
2022-11-22T23:56:21.856Z,21.92
2022-11-22T23:58:51.078Z,21.67
